createdAt,value
2023-04-11T00:00:56.995Z,95059.19
2023-04-11T00:03:25.333Z,95053.66
2023-04-11T00:05:54.697Z,95040.03
2023-04-11T00:08:22.542Z,95035.22
2023-04-11T00:10:50.344Z,95022.03
2023-04-11T00:13:19.678Z,95021.84
2023-04-11T00:15:47.728Z,95014.97
2023-04-11T00:18:15.548Z,95020.28
2023-04-11T00:20:43.323Z,95016.75
2023-04-11T00:23:13.165Z,95012.38
2023-04-11T00:25:41.261Z,95012.94
2023-04-11T00:28:09.150Z,95022.25
2023-04-11T00:30:36.895Z,95028.69
2023-04-11T00:33:04.938Z,95015.53
2023-04-11T00:35:34.582Z,95008.56
2023-04-11T00:38:03.848Z,95007.06
2023-04-11T00:40:33.518Z,95001.91
2023-04-11T00:43:01.349Z,95004.69
2023-04-11T00:45:29.339Z,94995.44
2023-04-11T00:47:57.203Z,94977.28
2023-04-11T00:50:25.131Z,94964.03
2023-04-11T00:52:56.052Z,94962.34
2023-04-11T00:55:23.970Z,94960.91
2023-04-11T00:57:55.831Z,94954.63
2023-04-11T01:00:24.688Z,94952.84
2023-04-11T01:02:52.616Z,94949.72
2023-04-11T01:05:21.878Z,94950.50
2023-04-11T01:07:54.888Z,94963.75
2023-04-11T01:10:23.720Z,94966.22
2023-04-11T01:12:54.155Z,94960.63
2023-04-11T01:15:24.884Z,94960.81
2023-04-11T01:17:55.189Z,94963.25
2023-04-11T01:20:23.044Z,94978.06
2023-04-11T01:22:51.370Z,94969.84
2023-04-11T01:25:22.171Z,94963.56
2023-04-11T01:27:50.026Z,94957.66
2023-04-11T01:30:17.780Z,94945.47
2023-04-11T01:32:45.640Z,94939.72
2023-04-11T01:35:13.941Z,94934.41
2023-04-11T01:37:41.728Z,94945.53
2023-04-11T01:40:10.522Z,94954.81
2023-04-11T01:42:41.477Z,94931.84
2023-04-11T01:45:12.969Z,94947.91
2023-04-11T01:47:41.110Z,94930.91
2023-04-11T01:50:09.761Z,94941.00
2023-04-11T01:52:37.500Z,94940.50
2023-04-11T01:55:06.090Z,94916.28
2023-04-11T01:57:33.862Z,94936.34
2023-04-11T02:00:03.839Z,94923.34
2023-04-11T02:02:42.233Z,94899.31
2023-04-11T02:05:11.034Z,94891.53
2023-04-11T02:07:38.915Z,94880.09
2023-04-11T02:10:08.622Z,94883.97
2023-04-11T02:12:36.396Z,94882.47
2023-04-11T02:15:06.304Z,94875.91
2023-04-11T02:17:34.231Z,94859.44
2023-04-11T02:20:02.376Z,94866.47
2023-04-11T02:22:30.866Z,94858.75
2023-04-11T02:24:58.604Z,94859.75
2023-04-11T02:27:26.399Z,94858.53
2023-04-11T02:29:55.724Z,94860.63
2023-04-11T02:32:24.917Z,94853.69
2023-04-11T02:34:52.752Z,94848.66
2023-04-11T02:37:20.657Z,94856.75
2023-04-11T02:39:48.416Z,94845.88
2023-04-11T02:42:16.151Z,94831.75
2023-04-11T02:44:43.974Z,94829.66
2023-04-11T02:47:11.982Z,94828.03
2023-04-11T02:49:42.374Z,94824.66
2023-04-11T02:52:11.758Z,94833.97
2023-04-11T02:54:39.642Z,94844.78
2023-04-11T02:57:07.431Z,94835.53
2023-04-11T02:59:35.277Z,94838.44
2023-04-11T03:02:03.741Z,94831.38
2023-04-11T03:04:32.055Z,94827.38
2023-04-11T03:07:14.113Z,94825.72
2023-04-11T03:09:41.889Z,94830.94
2023-04-11T03:12:09.655Z,94817.88
2023-04-11T03:14:47.282Z,94813.56
2023-04-11T03:17:15.024Z,94813.44
2023-04-11T03:19:43.038Z,94814.72
2023-04-11T03:22:13.181Z,94810.00
2023-04-11T03:24:40.963Z,94815.09
2023-04-11T03:27:09.257Z,94803.44
2023-04-11T03:29:39.953Z,94804.44
2023-04-11T03:32:17.874Z,94801.22
2023-04-11T03:34:45.693Z,94800.00
2023-04-11T03:37:16.896Z,94792.94
2023-04-11T03:39:44.718Z,94795.16
2023-04-11T03:42:13.442Z,94802.28
2023-04-11T03:44:41.787Z,94792.56
2023-04-11T03:47:09.833Z,94789.53
2023-04-11T03:49:42.772Z,94791.66
2023-04-11T03:52:11.407Z,94788.34
2023-04-11T03:54:41.879Z,94776.56
2023-04-11T03:57:11.626Z,94779.41
2023-04-11T03:59:39.888Z,94776.81
2023-04-11T04:02:10.364Z,94772.34
2023-04-11T04:04:47.019Z,94767.09
2023-04-11T04:07:29.249Z,94768.31
2023-04-11T04:10:12.751Z,94771.22
2023-04-11T04:12:42.574Z,94766.13
2023-04-11T04:15:21.503Z,94764.00
2023-04-11T04:17:50.464Z,94753.91
2023-04-11T04:20:25.683Z,94763.63
2023-04-11T04:22:57.208Z,94762.50
2023-04-11T04:25:36.115Z,94762.00
2023-04-11T04:28:04.239Z,94758.34
2023-04-11T04:30:38.973Z,94762.50
2023-04-11T04:33:14.714Z,94771.78
2023-04-11T04:35:47.449Z,94787.94
2023-04-11T04:38:17.459Z,94796.50
2023-04-11T04:40:54.670Z,94802.00
2023-04-11T04:43:24.972Z,94804.16
2023-04-11T04:45:58.061Z,94799.94
2023-04-11T04:48:34.289Z,94806.84
2023-04-11T04:51:02.050Z,94809.00
2023-04-11T04:53:34.685Z,94815.53
2023-04-11T04:56:04.011Z,94807.56
2023-04-11T04:58:35.161Z,94811.19
2023-04-11T05:01:06.411Z,94828.75
2023-04-11T05:03:35.911Z,94818.13
2023-04-11T05:06:07.158Z,94822.59
2023-04-11T05:08:35.685Z,94826.31
2023-04-11T05:11:07.753Z,94818.38
2023-04-11T05:13:37.114Z,94816.13
2023-04-11T05:16:07.279Z,94838.41
2023-04-11T05:18:35.403Z,94828.25
2023-04-11T05:21:04.675Z,94824.94
2023-04-11T05:23:37.292Z,94816.63
2023-04-11T05:26:08.562Z,94822.00
2023-04-11T05:28:37.869Z,94845.22
2023-04-11T05:31:12.068Z,94841.31
2023-04-11T05:33:43.188Z,94813.59
2023-04-11T05:36:13.913Z,94809.63
2023-04-11T05:38:41.917Z,94831.84
2023-04-11T05:41:11.972Z,94826.94
2023-04-11T05:43:39.776Z,94867.13
2023-04-11T05:46:10.646Z,94839.97
2023-04-11T05:48:38.919Z,94837.41
2023-04-11T05:51:07.067Z,94827.53
2023-04-11T05:53:35.308Z,94831.22
2023-04-11T05:56:03.121Z,94819.97
2023-04-11T05:58:32.209Z,94807.56
2023-04-11T06:01:00.960Z,94814.38
2023-04-11T06:03:28.848Z,94820.84
2023-04-11T06:05:56.846Z,94829.22
2023-04-11T06:08:24.617Z,94836.72
2023-04-11T06:10:52.368Z,94832.78
2023-04-11T06:13:20.135Z,94843.66
2023-04-11T06:15:49.364Z,94828.50
2023-04-11T06:18:17.411Z,94838.31
2023-04-11T06:20:46.198Z,94836.34
2023-04-11T06:23:14.004Z,94821.34
2023-04-11T06:25:42.244Z,94835.16
2023-04-11T06:28:10.146Z,94864.59
2023-04-11T06:30:37.960Z,94845.44
2023-04-11T06:33:07.190Z,94866.16
2023-04-11T06:35:35.063Z,94867.81
2023-04-11T06:38:02.918Z,94872.38
2023-04-11T06:40:30.678Z,94868.31
2023-04-11T06:43:00.279Z,94864.44
2023-04-11T06:45:28.197Z,94873.91
2023-04-11T06:47:56.201Z,94839.03
2023-04-11T06:50:25.354Z,94841.22
2023-04-11T06:52:53.258Z,94842.22
2023-04-11T06:55:21.279Z,94831.38
2023-04-11T06:57:49.060Z,94828.81
2023-04-11T07:00:17.668Z,94820.91
2023-04-11T07:02:45.715Z,94837.44
2023-04-11T07:05:13.713Z,94834.84
2023-04-11T07:07:42.976Z,94833.28
2023-04-11T07:10:11.284Z,94837.38
2023-04-11T07:12:39.110Z,94835.59
2023-04-11T07:15:08.139Z,94854.06
2023-04-11T07:17:36.177Z,94849.69
2023-04-11T07:20:06.535Z,94838.25
2023-04-11T07:22:34.400Z,94843.53
2023-04-11T07:25:04.676Z,94836.25
2023-04-11T07:27:33.460Z,94827.56
2023-04-11T07:30:01.509Z,94834.69
2023-04-11T07:32:29.592Z,94826.91
2023-04-11T07:34:57.416Z,94858.97
2023-04-11T07:37:26.951Z,94846.19
2023-04-11T07:39:54.763Z,94864.69
2023-04-11T07:42:23.892Z,94854.56
2023-04-11T07:44:51.729Z,94865.34
2023-04-11T07:47:19.673Z,94872.81
2023-04-11T07:49:47.528Z,94890.78
2023-04-11T07:52:15.570Z,94888.31
2023-04-11T07:54:43.428Z,94897.34
2023-04-11T07:57:11.232Z,94904.59
2023-04-11T07:59:41.090Z,94902.03
2023-04-11T08:02:09.098Z,94897.59
2023-04-11T08:04:38.381Z,94901.88
2023-04-11T08:07:06.902Z,94912.25
2023-04-11T08:09:35.377Z,94909.41
2023-04-11T08:12:03.479Z,94917.06
2023-04-11T08:14:31.409Z,94931.28
2023-04-11T08:17:00.979Z,94930.25
2023-04-11T08:19:28.950Z,94933.13
2023-04-11T08:21:56.907Z,94928.25
2023-04-11T08:24:24.697Z,94948.59
2023-04-11T08:26:52.487Z,94939.41
2023-04-11T08:29:20.502Z,94980.94
2023-04-11T08:31:48.413Z,94948.03
2023-04-11T08:34:17.633Z,94940.22
2023-04-11T08:36:45.526Z,94929.81
2023-04-11T08:39:13.431Z,94929.81
2023-04-11T08:41:41.798Z,94917.59
2023-04-11T08:44:12.850Z,94929.28
2023-04-11T08:46:44.358Z,94915.28
2023-04-11T08:49:12.419Z,94913.47
2023-04-11T08:51:44.519Z,94914.22
2023-04-11T08:54:13.153Z,94891.66
2023-04-11T08:56:42.816Z,94871.81
2023-04-11T08:59:10.835Z,94940.91
2023-04-11T09:01:40.850Z,94955.94
2023-04-11T09:04:10.757Z,94950.19
2023-04-11T09:06:40.207Z,94963.44
2023-04-11T09:09:28.787Z,94979.97
2023-04-11T09:11:56.858Z,94988.28
2023-04-11T09:14:26.772Z,94997.13
2023-04-11T09:16:56.536Z,94986.69
2023-04-11T09:19:26.095Z,95007.16
2023-04-11T09:21:54.997Z,95000.16
2023-04-11T09:24:25.962Z,95000.16
2023-04-11T09:27:12.686Z,94994.97
2023-04-11T09:29:42.819Z,95005.41
2023-04-11T09:32:30.499Z,95007.63
2023-04-11T09:35:13.256Z,95000.22
2023-04-11T09:37:46.846Z,95039.09
2023-04-11T09:40:18.331Z,95056.50
2023-04-11T09:42:47.953Z,95043.75
2023-04-11T09:45:21.057Z,95031.31
2023-04-11T09:47:50.546Z,95050.78
2023-04-11T09:50:18.989Z,95056.34
2023-04-11T09:52:47.545Z,95071.19
2023-04-11T09:55:19.790Z,95076.78
2023-04-11T09:57:49.065Z,95070.75
2023-04-11T10:00:20.087Z,95076.53
2023-04-11T10:02:50.238Z,95075.22
2023-04-11T10:05:21.024Z,95076.53
2023-04-11T10:07:53.421Z,95079.53
2023-04-11T10:10:24.762Z,95076.00
2023-04-11T10:12:52.848Z,95078.69
2023-04-11T10:15:21.773Z,95065.56
2023-04-11T10:18:09.431Z,95069.31
2023-04-11T10:20:46.576Z,95072.66
2023-04-11T10:23:16.118Z,95062.63
2023-04-11T10:25:55.488Z,95061.28
2023-04-11T10:28:38.367Z,95066.66
2023-04-11T10:31:13.045Z,95070.41
2023-04-11T10:33:42.248Z,95045.31
2023-04-11T10:36:12.403Z,95039.78
2023-04-11T10:38:49.378Z,95062.66
2023-04-11T10:41:31.536Z,95087.47
2023-04-11T10:44:24.993Z,95065.13
2023-04-11T10:46:54.634Z,95081.72
2023-04-11T10:49:37.538Z,95098.59
2023-04-11T10:52:22.810Z,95100.50
2023-04-11T10:54:52.228Z,95114.84
2023-04-11T10:57:22.785Z,95121.63
2023-04-11T11:00:13.952Z,95113.50
2023-04-11T11:02:43.135Z,95129.47
2023-04-11T11:05:22.195Z,95123.47
2023-04-11T11:07:51.701Z,95109.63
2023-04-11T11:10:42.401Z,95114.97
2023-04-11T11:13:11.986Z,95102.72
2023-04-11T11:15:40.073Z,95101.88
2023-04-11T11:18:09.838Z,95113.22
2023-04-11T11:20:38.530Z,95116.75
2023-04-11T11:23:07.847Z,95135.81
2023-04-11T11:25:36.485Z,95113.53
2023-04-11T11:28:06.757Z,95122.81
2023-04-11T11:30:37.320Z,95121.81
2023-04-11T11:33:18.924Z,95143.88
2023-04-11T11:35:51.900Z,95131.81
2023-04-11T11:38:20.317Z,95137.88
2023-04-11T11:40:48.814Z,95129.78
2023-04-11T11:43:17.137Z,95151.28
2023-04-11T11:45:47.119Z,95150.34
2023-04-11T11:48:22.288Z,95156.81
2023-04-11T11:50:58.091Z,95141.53
2023-04-11T11:53:26.851Z,95142.06
2023-04-11T11:55:55.017Z,95144.34
2023-04-11T11:58:22.918Z,95147.72
2023-04-11T12:00:53.318Z,95150.50
2023-04-11T12:03:23.812Z,95159.72
2023-04-11T12:05:52.907Z,95141.78
2023-04-11T12:08:22.760Z,95153.75
2023-04-11T12:10:51.634Z,95156.06
2023-04-11T12:13:22.430Z,95123.03
2023-04-11T12:15:53.644Z,95116.50
2023-04-11T12:18:22.762Z,95141.50
2023-04-11T12:20:50.801Z,95141.06
2023-04-11T12:23:18.956Z,95147.66
2023-04-11T12:25:47.317Z,95134.81
2023-04-11T12:28:15.221Z,95131.31
2023-04-11T12:30:45.318Z,95136.41
2023-04-11T12:33:14.665Z,95136.84
2023-04-11T12:35:42.467Z,95136.41
2023-04-11T12:38:11.942Z,95151.78
2023-04-11T12:40:42.764Z,95146.75
2023-04-11T12:43:10.540Z,95147.22
2023-04-11T12:45:39.140Z,95142.88
2023-04-11T12:48:07.732Z,95143.28
2023-04-11T12:50:36.928Z,95133.63
2023-04-11T12:53:04.736Z,95143.06
2023-04-11T12:55:32.734Z,95140.69
2023-04-11T12:58:00.848Z,95137.59
2023-04-11T13:00:28.800Z,95138.22
2023-04-11T13:02:57.905Z,95147.84
2023-04-11T13:05:27.298Z,95145.50
2023-04-11T13:07:56.547Z,95130.34
2023-04-11T13:10:24.591Z,95137.44
2023-04-11T13:12:53.351Z,95141.19
2023-04-11T13:15:21.352Z,95123.41
2023-04-11T13:17:49.340Z,95129.31
2023-04-11T13:20:17.427Z,95128.56
2023-04-11T13:22:45.231Z,95118.44
2023-04-11T13:25:14.460Z,95111.53
2023-04-11T13:27:42.605Z,95112.06
2023-04-11T13:30:11.817Z,95116.47
2023-04-11T13:32:39.819Z,95115.50
2023-04-11T13:35:08.886Z,95111.72
2023-04-11T13:37:36.706Z,95110.66
2023-04-11T13:40:10.001Z,95113.97
2023-04-11T13:42:39.126Z,95112.25
2023-04-11T13:45:07.872Z,95096.31
2023-04-11T13:47:38.405Z,95094.53
2023-04-11T13:50:08.583Z,95102.81
2023-04-11T13:52:36.428Z,95091.38
2023-04-11T13:55:04.455Z,95099.53
2023-04-11T13:57:32.268Z,95091.81
2023-04-11T14:00:01.633Z,95090.63
2023-04-11T14:02:29.551Z,95083.91
2023-04-11T14:04:58.135Z,95087.91
2023-04-11T14:07:25.988Z,95077.44
2023-04-11T14:09:53.953Z,95081.97
2023-04-11T14:12:21.769Z,95083.34
2023-04-11T14:14:49.605Z,95096.47
2023-04-11T14:17:18.813Z,95089.56
2023-04-11T14:19:46.624Z,95088.84
2023-04-11T14:22:14.477Z,95100.50
2023-04-11T14:24:42.744Z,95085.53
2023-04-11T14:27:11.162Z,95080.72
2023-04-11T14:29:42.270Z,95093.34
2023-04-11T14:32:10.442Z,95091.94
2023-04-11T14:34:39.913Z,95087.22
2023-04-11T14:37:08.722Z,95096.44
2023-04-11T14:39:38.982Z,95095.44
2023-04-11T14:42:07.173Z,95088.94
2023-04-11T14:44:35.542Z,95082.63
2023-04-11T14:47:03.562Z,95086.56
2023-04-11T14:49:31.549Z,95075.34
2023-04-11T14:52:03.783Z,95079.09
2023-04-11T14:54:31.589Z,95078.97
2023-04-11T14:56:59.682Z,95079.97
2023-04-11T14:59:27.754Z,95077.22
2023-04-11T15:01:55.595Z,95080.00
2023-04-11T15:04:23.528Z,95070.72
2023-04-11T15:06:51.380Z,95081.44
2023-04-11T15:09:21.130Z,95081.75
2023-04-11T15:11:49.664Z,95083.50
2023-04-11T15:14:17.501Z,95059.44
2023-04-11T15:16:45.539Z,95061.88
2023-04-11T15:19:13.397Z,95060.81
2023-04-11T15:21:41.288Z,95054.94
2023-04-11T15:24:09.099Z,95045.06
2023-04-11T15:26:38.324Z,95054.50
2023-04-11T15:29:07.038Z,95055.09
2023-04-11T15:31:36.414Z,95048.53
2023-04-11T15:34:04.360Z,95055.53
2023-04-11T15:36:32.688Z,95051.50
2023-04-11T15:39:00.742Z,95036.66
2023-04-11T15:41:28.499Z,95058.84
2023-04-11T15:43:58.066Z,95064.19
2023-04-11T15:46:27.137Z,95051.22
2023-04-11T15:48:55.053Z,95053.88
2023-04-11T15:51:23.190Z,95054.78
2023-04-11T15:53:50.974Z,95062.34
2023-04-11T15:56:19.911Z,95061.25
2023-04-11T15:58:49.120Z,95095.78
2023-04-11T16:01:25.124Z,95086.31
2023-04-11T16:03:53.477Z,95085.31
2023-04-11T16:06:21.545Z,95071.50
2023-04-11T16:08:49.427Z,95081.56
2023-04-11T16:11:17.192Z,95077.84
2023-04-11T16:13:45.129Z,95077.81
2023-04-11T16:16:13.062Z,95067.00
2023-04-11T16:18:42.252Z,95062.25
2023-04-11T16:21:14.408Z,95059.09
2023-04-11T16:23:42.262Z,95071.91
2023-04-11T16:26:10.444Z,95069.75
2023-04-11T16:28:38.243Z,95067.34
2023-04-11T16:31:06.404Z,95066.34
2023-04-11T16:33:34.201Z,95065.81
2023-04-11T16:36:03.443Z,95068.16
2023-04-11T16:38:31.365Z,95052.38
2023-04-11T16:41:01.369Z,95065.59
2023-04-11T16:43:29.152Z,95075.47
2023-04-11T16:45:56.995Z,95069.16
2023-04-11T16:48:27.086Z,95065.19
2023-04-11T16:50:54.877Z,95078.03
2023-04-11T16:53:24.339Z,95057.91
2023-04-11T16:55:53.572Z,95048.44
2023-04-11T16:58:21.378Z,95061.63
2023-04-11T17:00:49.296Z,95063.63
2023-04-11T17:03:18.122Z,95058.72
2023-04-11T17:05:46.719Z,95058.47
2023-04-11T17:08:15.740Z,95044.84
2023-04-11T17:10:45.198Z,95051.50
2023-04-11T17:13:14.633Z,95056.38
2023-04-11T17:15:42.755Z,95045.75
2023-04-11T17:18:10.820Z,95061.06
2023-04-11T17:20:38.718Z,95059.91
2023-04-11T17:23:06.586Z,95064.38
2023-04-11T17:25:34.513Z,95060.22
2023-04-11T17:28:03.832Z,95055.66
2023-04-11T17:30:32.798Z,95062.41
2023-04-11T17:33:00.930Z,95050.22
2023-04-11T17:35:29.462Z,95067.00
2023-04-11T17:37:58.998Z,95058.25
2023-04-11T17:40:26.823Z,95063.75
2023-04-11T17:42:54.751Z,95058.03
2023-04-11T17:45:24.167Z,95063.75
2023-04-11T17:47:51.989Z,95064.09
2023-04-11T17:50:20.085Z,95075.06
2023-04-11T17:52:48.356Z,95067.91
2023-04-11T17:55:17.125Z,95064.38
2023-04-11T17:57:47.311Z,95068.28
2023-04-11T18:00:20.100Z,95062.72
2023-04-11T18:02:50.796Z,95068.03
2023-04-11T18:05:24.358Z,95070.41
2023-04-11T18:07:54.597Z,95071.75
2023-04-11T18:10:22.808Z,95065.34
2023-04-11T18:12:52.394Z,95064.56
2023-04-11T18:15:21.217Z,95073.69
2023-04-11T18:17:51.882Z,95079.94
2023-04-11T18:20:20.118Z,95083.28
2023-04-11T18:22:54.788Z,95079.53
2023-04-11T18:25:23.241Z,95095.06
2023-04-11T18:27:51.050Z,95090.16
2023-04-11T18:30:19.478Z,95093.28
2023-04-11T18:32:50.092Z,95100.56
2023-04-11T18:35:20.156Z,95095.94
2023-04-11T18:37:47.967Z,95093.00
2023-04-11T18:40:16.270Z,95091.25
2023-04-11T18:42:46.695Z,95087.34
2023-04-11T18:45:17.464Z,95094.84
2023-04-11T18:47:46.289Z,95101.56
2023-04-11T18:50:14.565Z,95086.06
2023-04-11T18:52:45.247Z,95096.53
2023-04-11T18:55:13.546Z,95101.91
2023-04-11T18:57:43.317Z,95096.22
2023-04-11T19:00:18.417Z,95098.78
2023-04-11T19:02:47.478Z,95102.59
2023-04-11T19:05:16.351Z,95099.50
2023-04-11T19:07:46.616Z,95105.44
2023-04-11T19:10:14.859Z,95103.22
2023-04-11T19:12:42.729Z,95095.22
2023-04-11T19:15:11.604Z,95095.22
2023-04-11T19:17:39.911Z,95088.72
2023-04-11T19:20:12.220Z,95085.88
2023-04-11T19:22:41.313Z,95082.63
2023-04-11T19:25:11.950Z,95090.00
2023-04-11T19:27:41.515Z,95084.72
2023-04-11T19:30:13.768Z,95098.25
2023-04-11T19:32:43.634Z,95085.56
2023-04-11T19:35:12.617Z,95093.72
2023-04-11T19:37:41.599Z,95088.34
2023-04-11T19:40:12.366Z,95084.81
2023-04-11T19:42:40.585Z,95078.31
2023-04-11T19:45:11.059Z,95072.84
2023-04-11T19:47:40.132Z,95081.56
2023-04-11T19:50:12.021Z,95076.94
2023-04-11T19:52:40.861Z,95078.91
2023-04-11T19:55:10.881Z,95066.28
2023-04-11T19:57:40.111Z,95069.69
2023-04-11T20:00:13.949Z,95065.56
2023-04-11T20:02:47.943Z,95058.19
2023-04-11T20:05:18.045Z,95058.81
2023-04-11T20:07:46.478Z,95056.50
2023-04-11T20:10:17.029Z,95045.78
2023-04-11T20:12:44.897Z,95047.72
2023-04-11T20:15:14.736Z,95047.28
2023-04-11T20:17:44.442Z,95046.13
2023-04-11T20:20:14.058Z,95041.66
2023-04-11T20:22:44.620Z,95037.59
2023-04-11T20:25:12.509Z,95040.06
2023-04-11T20:27:43.227Z,95036.19
2023-04-11T20:30:12.165Z,95036.81
2023-04-11T20:32:40.934Z,95032.44
2023-04-11T20:35:09.820Z,95031.34
2023-04-11T20:37:37.818Z,95028.41
2023-04-11T20:40:07.916Z,95036.63
2023-04-11T20:42:39.799Z,95031.41
2023-04-11T20:45:11.674Z,95024.44
2023-04-11T20:47:40.274Z,95032.66
2023-04-11T20:50:10.250Z,95037.41
2023-04-11T20:52:43.430Z,95032.25
2023-04-11T20:55:12.545Z,95029.63
2023-04-11T20:57:40.829Z,95036.56
2023-04-11T21:00:14.290Z,95029.09
2023-04-11T21:02:44.170Z,95025.81
2023-04-11T21:05:13.035Z,95022.31
2023-04-11T21:07:41.646Z,95024.41
2023-04-11T21:10:10.544Z,95020.47
2023-04-11T21:12:38.819Z,95017.06
2023-04-11T21:15:08.525Z,95013.25
2023-04-11T21:17:39.690Z,95017.47
2023-04-11T21:20:11.071Z,95006.03
2023-04-11T21:22:40.311Z,95012.44
2023-04-11T21:25:09.352Z,95003.03
2023-04-11T21:27:37.398Z,94995.13
2023-04-11T21:30:06.418Z,95005.59
2023-04-11T21:32:38.093Z,95000.44
2023-04-11T21:35:08.911Z,95003.50
2023-04-11T21:37:36.773Z,95001.47
2023-04-11T21:40:05.604Z,94986.34
2023-04-11T21:42:33.536Z,94992.25
2023-04-11T21:45:01.510Z,94989.97
2023-04-11T21:47:29.492Z,94985.22
2023-04-11T21:49:58.671Z,94984.47
2023-04-11T21:52:26.585Z,94974.13
2023-04-11T21:54:54.432Z,94968.41
2023-04-11T21:57:24.796Z,94965.88
2023-04-11T21:59:52.556Z,94970.34
2023-04-11T22:02:20.709Z,94966.03
2023-04-11T22:05:04.627Z,94969.75
2023-04-11T22:07:39.335Z,94962.28
2023-04-11T22:10:11.713Z,94950.22
2023-04-11T22:12:40.261Z,94962.00
2023-04-11T22:15:12.402Z,94949.28
2023-04-11T22:17:41.777Z,94947.00
2023-04-11T22:20:11.275Z,94945.59
2023-04-11T22:22:40.837Z,94940.13
2023-04-11T22:25:09.925Z,94941.81
2023-04-11T22:27:38.287Z,94945.84
2023-04-11T22:30:07.785Z,94939.25
2023-04-11T22:32:36.871Z,94926.75
2023-04-11T22:35:05.609Z,94929.97
2023-04-11T22:37:33.736Z,94932.91
2023-04-11T22:40:06.235Z,94913.44
2023-04-11T22:42:34.049Z,94922.31
2023-04-11T22:45:01.937Z,94909.81
2023-04-11T22:47:29.892Z,94914.13
2023-04-11T22:49:57.870Z,94909.72
2023-04-11T22:52:26.284Z,94901.72
2023-04-11T22:54:56.260Z,94901.72
2023-04-11T22:57:25.445Z,94906.94
2023-04-11T22:59:53.505Z,94895.44
2023-04-11T23:02:21.384Z,94878.03
2023-04-11T23:04:49.243Z,94887.25
2023-04-11T23:07:17.907Z,94883.13
2023-04-11T23:09:47.175Z,94888.75
2023-04-11T23:12:14.972Z,94877.59
2023-04-11T23:14:44.103Z,94883.47
2023-04-11T23:17:13.357Z,94870.66
2023-04-11T23:19:41.187Z,94866.19
2023-04-11T23:22:09.549Z,94865.22
2023-04-11T23:24:37.343Z,94854.13
2023-04-11T23:27:05.272Z,94857.66
2023-04-11T23:29:33.250Z,94840.16
2023-04-11T23:32:02.488Z,94833.66
2023-04-11T23:34:30.606Z,94824.22
2023-04-11T23:36:58.628Z,94838.41
2023-04-11T23:39:26.494Z,94828.94
2023-04-11T23:41:54.354Z,94823.41
2023-04-11T23:44:22.596Z,94824.63
2023-04-11T23:46:50.561Z,94818.66
2023-04-11T23:49:19.717Z,94822.59
2023-04-11T23:51:47.552Z,94816.75
2023-04-11T23:54:15.356Z,94802.97
2023-04-11T23:56:43.855Z,94796.97
2023-04-11T23:59:11.734Z,94802.69
